Time;durP1;ratioP1;P1;durP2;ratioP2;P2;SDS_P1;SDS_P2;PMS_P1;PMS_P2;Temp;Humidity;BMP_temperature;BMP_pressure;BME280_temperature;BME280_humidity;BME280_pressure;Samples;Min_cycle;Max_cycle;Signal;HPM_P1;HPM_P2
2022/03/19 00:01:33;;;;;;;;;;;;;;;;;;5016153;28;20341;-77
2022/03/19 00:04:00;;;;;;;;;;;;;;;;;;4998981;28;19998;-71
2022/03/19 00:06:28;;;;;;;;;;;;;;;;;;5015857;28;19994;-71
2022/03/19 00:08:56;;;;;;;;;;;;;;;;;;5016256;28;20119;-71
2022/03/19 00:11:24;;;;;;;;;;;;;;;;;;5014524;28;20120;-77
2022/03/19 00:13:52;;;;;;;;;;;;;;;;;;5015842;28;20018;-72
2022/03/19 00:16:24;;;;;;;;;;;;;;;;;;5013989;28;20008;-77
2022/03/19 00:18:51;;;;;;;;;;;;;;;;;;5014122;28;19994;-76
2022/03/19 00:21:18;;;;;;;;;;;;;;;;;;5014632;28;20003;-76
2022/03/19 00:23:46;;;;;;;;;;;;;;;;;;5007862;28;20414;-71
2022/03/19 00:26:17;;;;;;;;;;;;;;;;;;5015874;28;20001;-76
2022/03/19 00:28:45;;;;;;;;;;;;;;;;;;5016509;28;20005;-77
2022/03/19 00:31:13;;;;;;;;;;;;;;;;;;4997362;28;20018;-76
2022/03/19 00:33:40;;;;;;;;;;;;;;;;;;5015618;28;19994;-71
2022/03/19 00:36:08;;;;;;;;;;;;;;;;;;5015860;28;20422;-76
2022/03/19 00:38:35;;;;;;;;;;;;;;;;;;5014305;28;19999;-76
2022/03/19 00:41:03;;;;;;;;;;;;;;;;;;5015230;28;20002;-71
2022/03/19 00:43:30;;;;;;;;;;;;;;;;;;5014893;28;20001;-77
2022/03/19 00:45:58;;;;;;;;;;;;;;;;;;4997611;28;20045;-76
2022/03/19 00:48:25;;;;;;;;;;;;;;;;;;4997973;28;20013;-70
2022/03/19 00:50:55;;;;;;;;;;;;;;;;;;5012855;28;20078;-77
2022/03/19 00:53:23;;;;;;;;;;;;;;;;;;5015133;28;20105;-75
2022/03/19 00:55:50;;;;;;;;;;;;;;;;;;5014027;28;20003;-72
2022/03/19 00:58:18;;;;;;;;;;;;;;;;;;5015055;28;20092;-71
2022/03/19 01:00:46;;;;;;;;;;;;;;;;;;4973645;28;20018;-77
2022/03/19 01:03:15;;;;;;;;;;;;;;;;;;5015075;28;20477;-71
2022/03/19 01:05:43;;;;;;;;;;;;;;;;;;4997162;28;20093;-71
2022/03/19 01:08:13;;;;;;;;;;;;;;;;;;5015233;28;20084;-71
2022/03/19 01:10:41;;;;;;;;;;;;;;;;;;5014939;28;20362;-77
2022/03/19 01:13:08;;;;;;;;;;;;;;;;;;5013108;28;20022;-71
2022/03/19 01:15:36;;;;;;;;;;;;;;;;;;5014524;28;20173;-77
2022/03/19 01:18:03;;;;;;;;;;;;;;;;;;5014567;28;19994;-70
2022/03/19 01:20:31;;;;;;;;;;;;;;;;;;5014801;28;19995;-70
2022/03/19 01:22:58;;;;;;;;;;;;;;;;;;5015188;28;19995;-70
2022/03/19 01:25:26;;;;;;;;;;;;;;;;;;5014378;28;20018;-77
2022/03/19 01:27:54;;;;;;;;;;;;;;;;;;5014573;28;20366;-71
2022/03/19 01:30:22;;;;;;;;;;;;;;;;;;5014098;28;20001;-71
2022/03/19 01:32:50;;;;;;;;;;;;;;;;;;5011997;28;20481;-77
2022/03/19 01:35:17;;;;;;;;;;;;;;;;;;4996577;28;19994;-71
2022/03/19 01:37:45;;;;;;;;;;;;;;;;;;5014286;28;19998;-70
2022/03/19 01:40:14;;;;;;;;;;;;;;;;;;5012926;28;20108;-70
2022/03/19 01:42:41;;;;;;;;;;;;;;;;;;4996382;28;20366;-77
2022/03/19 01:45:09;;;;;;;;;;;;;;;;;;5014365;28;20014;-77
2022/03/19 01:47:37;;;;;;;;;;;;;;;;;;5014481;28;20077;-71
2022/03/19 01:50:05;;;;;;;;;;;;;;;;;;5014306;28;20014;-70
2022/03/19 01:52:34;;;;;;;;;;;;;;;;;;5012232;28;20373;-75
2022/03/19 01:55:02;;;;;;;;;;;;;;;;;;5013783;28;19994;-75
2022/03/19 01:57:29;;;;;;;;;;;;;;;;;;5013738;28;20109;-75
2022/03/19 01:59:58;;;;;;;;;;;;;;;;;;4996508;28;20002;-77
2022/03/19 02:02:26;;;;;;;;;;;;;;;;;;5012416;28;20113;-76
2022/03/19 02:04:54;;;;;;;;;;;;;;;;;;5012478;28;19998;-78
2022/03/19 02:07:22;;;;;;;;;;;;;;;;;;5013870;28;20001;-71
2022/03/19 02:09:49;;;;;;;;;;;;;;;;;;5013471;28;20014;-70
2022/03/19 02:12:21;;;;;;;;;;;;;;;;;;5012143;28;20010;-72
2022/03/19 02:14:48;;;;;;;;;;;;;;;;;;5013615;28;19994;-77
2022/03/19 02:17:15;;;;;;;;;;;;;;;;;;5011991;28;20018;-76
2022/03/19 02:19:43;;;;;;;;;;;;;;;;;;5013096;28;20473;-71
2022/03/19 02:22:10;;;;;;;;;;;;;;;;;;5013721;28;20081;-70
2022/03/19 02:27:31;;;;;;;;;;;;;;;;;;4995803;28;20502;-72
2022/03/19 02:29:58;;;;;;;;;;;;;;;;;;5012066;28;20009;-75
2022/03/19 02:32:26;;;;;;;;;;;;;;;;;;5013268;28;20018;-76
2022/03/19 02:34:54;;;;;;;;;;;;;;;;;;5011920;28;20002;-76
2022/03/19 02:37:21;;;;;;;;;;;;;;;;;;4996018;28;20104;-72
2022/03/19 02:39:49;;;;;;;;;;;;;;;;;;5013477;28;20005;-71
2022/03/19 02:42:16;;;;;;;;;;;;;;;;;;5011754;28;20089;-71
2022/03/19 02:44:44;;;;;;;;;;;;;;;;;;5013511;28;20350;-78
2022/03/19 02:47:11;;;;;;;;;;;;;;;;;;5013658;28;20044;-75
2022/03/19 02:49:39;;;;;;;;;;;;;;;;;;4995101;28;20112;-75
2022/03/19 02:52:06;;;;;;;;;;;;;;;;;;5013346;28;20386;-77
2022/03/19 02:54:33;;;;;;;;;;;;;;;;;;5012917;28;19998;-76
2022/03/19 02:57:02;;;;;;;;;;;;;;;;;;5011570;28;20008;-71
2022/03/19 02:59:29;;;;;;;;;;;;;;;;;;5010648;28;20002;-78
2022/03/19 03:01:56;;;;;;;;;;;;;;;;;;5008104;28;20019;-71
2022/03/19 03:04:24;;;;;;;;;;;;;;;;;;4993302;28;20002;-77
2022/03/19 03:06:52;;;;;;;;;;;;;;;;;;4997310;28;19994;-71
2022/03/19 03:09:20;;;;;;;;;;;;;;;;;;4997358;28;20015;-72
2022/03/19 03:11:47;;;;;;;;;;;;;;;;;;4997201;28;20006;-72
2022/03/19 03:14:14;;;;;;;;;;;;;;;;;;4997268;28;20025;-73
2022/03/19 03:16:42;;;;;;;;;;;;;;;;;;4997377;28;20026;-77
2022/03/19 03:19:10;;;;;;;;;;;;;;;;;;4976545;28;20046;-78
2022/03/19 03:21:39;;;;;;;;;;;;;;;;;;5012716;28;20362;-71
2022/03/19 03:24:07;;;;;;;;;;;;;;;;;;4997390;28;20080;-72
2022/03/19 03:26:34;;;;;;;;;;;;;;;;;;4980011;28;20053;-71
2022/03/19 03:29:02;;;;;;;;;;;;;;;;;;4996951;28;20044;-71
2022/03/19 03:31:29;;;;;;;;;;;;;;;;;;4996797;28;20344;-77
2022/03/19 03:33:57;;;;;;;;;;;;;;;;;;4996803;28;20528;-71
2022/03/19 03:36:24;;;;;;;;;;;;;;;;;;4976743;28;20090;-77
2022/03/19 03:38:52;;;;;;;;;;;;;;;;;;4997041;28;20044;-71
2022/03/19 03:41:21;;;;;;;;;;;;;;;;;;4997062;28;20501;-77
2022/03/19 03:43:49;;;;;;;;;;;;;;;;;;4979140;28;20003;-71
2022/03/19 03:46:17;;;;;;;;;;;;;;;;;;5012385;28;20082;-76
2022/03/19 03:48:44;;;;;;;;;;;;;;;;;;4979782;28;19994;-76
2022/03/19 03:51:12;;;;;;;;;;;;;;;;;;4996479;28;20021;-72
2022/03/19 03:53:39;;;;;;;;;;;;;;;;;;4996703;28;20010;-75
2022/03/19 03:56:08;;;;;;;;;;;;;;;;;;4975481;28;20019;-72
2022/03/19 03:58:35;;;;;;;;;;;;;;;;;;4995001;28;19995;-77
2022/03/19 04:01:03;;;;;;;;;;;;;;;;;;4996741;28;20015;-72
2022/03/19 04:03:30;;;;;;;;;;;;;;;;;;4996735;28;20365;-77
2022/03/19 04:05:59;;;;;;;;;;;;;;;;;;4978427;28;20101;-72
2022/03/19 04:08:28;;;;;;;;;;;;;;;;;;4996775;28;19995;-75
2022/03/19 04:10:56;;;;;;;;;;;;;;;;;;4975980;28;20086;-71
2022/03/19 04:13:23;;;;;;;;;;;;;;;;;;4993083;28;20018;-77
2022/03/19 04:15:51;;;;;;;;;;;;;;;;;;4978628;28;19995;-77
2022/03/19 04:18:18;;;;;;;;;;;;;;;;;;5010675;28;20034;-75
2022/03/19 04:20:46;;;;;;;;;;;;;;;;;;4996389;28;20022;-71
2022/03/19 04:23:13;;;;;;;;;;;;;;;;;;4996170;28;19999;-75
2022/03/19 04:25:41;;;;;;;;;;;;;;;;;;4996316;28;19998;-72
2022/03/19 04:28:11;;;;;;;;;;;;;;;;;;4995972;28;20005;-77
2022/03/19 04:30:40;;;;;;;;;;;;;;;;;;4995440;28;20077;-71
2022/03/19 04:33:07;;;;;;;;;;;;;;;;;;4978589;28;20125;-71
2022/03/19 04:38:21;;;;;;;;;;;;;;;;;;4995946;28;19999;-77
2022/03/19 04:40:49;;;;;;;;;;;;;;;;;;4995894;28;19994;-70
2022/03/19 04:43:16;;;;;;;;;;;;;;;;;;4995652;28;20001;-77
2022/03/19 04:45:44;;;;;;;;;;;;;;;;;;4995914;28;20005;-72
2022/03/19 04:48:11;;;;;;;;;;;;;;;;;;4994548;28;20425;-72
2022/03/19 04:50:39;;;;;;;;;;;;;;;;;;4977421;28;19995;-71
2022/03/19 04:53:09;;;;;;;;;;;;;;;;;;4995560;28;20011;-70
2022/03/19 04:55:36;;;;;;;;;;;;;;;;;;4995505;28;20001;-77
2022/03/19 04:58:04;;;;;;;;;;;;;;;;;;4995800;28;20028;-76
2022/03/19 05:00:32;;;;;;;;;;;;;;;;;;4978085;28;20006;-71
2022/03/19 05:03:03;;;;;;;;;;;;;;;;;;4975005;28;20022;-71
2022/03/19 05:05:31;;;;;;;;;;;;;;;;;;4993830;28;20420;-72
2022/03/19 05:08:03;;;;;;;;;;;;;;;;;;4977757;28;20378;-75
2022/03/19 05:13:18;;;;;;;;;;;;;;;;;;4995134;28;20018;-77
2022/03/19 05:15:45;;;;;;;;;;;;;;;;;;4961623;28;20437;-76
2022/03/19 05:18:13;;;;;;;;;;;;;;;;;;4995172;28;20017;-75
2022/03/19 05:20:40;;;;;;;;;;;;;;;;;;4995135;28;20006;-75
2022/03/19 05:23:09;;;;;;;;;;;;;;;;;;4995324;28;20005;-77
2022/03/19 05:25:37;;;;;;;;;;;;;;;;;;4995199;28;20017;-72
2022/03/19 05:28:05;;;;;;;;;;;;;;;;;;4977175;28;20097;-72
2022/03/19 05:30:49;;;;;;;;;;;;;;;;;;4963380;28;20398;-74
2022/03/19 05:33:17;;;;;;;;;;;;;;;;;;4977190;28;20018;-72
2022/03/19 05:35:45;;;;;;;;;;;;;;;;;;4977420;28;20109;-75
2022/03/19 05:38:12;;;;;;;;;;;;;;;;;;4994872;28;19994;-77
2022/03/19 05:40:40;;;;;;;;;;;;;;;;;;4994902;28;20097;-78
2022/03/19 05:43:07;;;;;;;;;;;;;;;;;;4994599;28;19999;-75
2022/03/19 05:45:34;;;;;;;;;;;;;;;;;;4999156;28;19994;-76
2022/03/19 05:48:02;;;;;;;;;;;;;;;;;;5014111;28;20000;-71
2022/03/19 05:50:31;;;;;;;;;;;;;;;;;;5012142;28;20365;-76
2022/03/19 05:52:58;;;;;;;;;;;;;;;;;;5014017;28;20466;-71
2022/03/19 05:55:25;;;;;;;;;;;;;;;;;;5011922;28;20362;-76
2022/03/19 05:57:53;;;;;;;;;;;;;;;;;;4995757;28;20002;-72
2022/03/19 06:00:20;;;;;;;;;;;;;;;;;;5013459;28;20009;-72
2022/03/19 06:02:50;;;;;;;;;;;;;;;;;;5013697;28;19999;-71
2022/03/19 06:05:21;;;;;;;;;;;;;;;;;;5013383;28;20001;-72
2022/03/19 06:07:52;;;;;;;;;;;;;;;;;;4993084;28;20002;-78
2022/03/19 06:10:19;;;;;;;;;;;;;;;;;;5008940;28;20049;-71
2022/03/19 06:12:47;;;;;;;;;;;;;;;;;;5009076;28;20023;-77
2022/03/19 06:15:16;;;;;;;;;;;;;;;;;;5008817;28;19994;-72
2022/03/19 06:17:43;;;;;;;;;;;;;;;;;;5011820;28;20092;-71
2022/03/19 06:20:11;;;;;;;;;;;;;;;;;;4992129;28;20469;-72
2022/03/19 06:22:39;;;;;;;;;;;;;;;;;;4995954;28;20092;-72
2022/03/19 06:25:09;;;;;;;;;;;;;;;;;;5012320;28;20520;-72
2022/03/19 06:27:37;;;;;;;;;;;;;;;;;;5012291;28;20005;-71
2022/03/19 06:30:04;;;;;;;;;;;;;;;;;;5013021;28;19997;-71
2022/03/19 06:32:32;;;;;;;;;;;;;;;;;;5013245;28;20014;-72
2022/03/19 06:35:02;;;;;;;;;;;;;;;;;;5012214;28;20010;-71
2022/03/19 06:37:32;;;;;;;;;;;;;;;;;;5012906;28;20017;-71
2022/03/19 06:40:06;;;;;;;;;;;;;;;;;;5010920;28;20002;-77
2022/03/19 06:42:34;;;;;;;;;;;;;;;;;;5012967;28;20060;-72
2022/03/19 06:45:01;;;;;;;;;;;;;;;;;;5011535;28;20010;-72
2022/03/19 06:47:30;;;;;;;;;;;;;;;;;;5013522;28;20018;-71
2022/03/19 06:49:57;;;;;;;;;;;;;;;;;;5013235;28;20001;-71
2022/03/19 06:52:28;;;;;;;;;;;;;;;;;;5014626;28;19994;-74
2022/03/19 06:54:56;;;;;;;;;;;;;;;;;;5003831;28;20010;-74
2022/03/19 06:57:23;;;;;;;;;;;;;;;;;;5012302;28;19998;-78
2022/03/19 06:59:51;;;;;;;;;;;;;;;;;;5013238;28;20014;-71
2022/03/19 07:02:18;;;;;;;;;;;;;;;;;;5013547;28;19999;-75
2022/03/19 07:04:46;;;;;;;;;;;;;;;;;;5004681;28;20114;-71
2022/03/19 07:07:13;;;;;;;;;;;;;;;;;;5012718;28;20000;-75
2022/03/19 07:09:41;;;;;;;;;;;;;;;;;;5011913;28;20108;-77
2022/03/19 07:12:11;;;;;;;;;;;;;;;;;;5081963;23;20012;-74
2022/03/19 07:14:42;;;;;;;;;;;;;;;;;;5011564;28;20016;-73
2022/03/19 07:17:10;;;;;;;;;;;;;;;;;;4994850;28;20020;-75
2022/03/19 07:19:38;;;;;;;;;;;;;;;;;;4992981;28;20477;-75
2022/03/19 07:22:09;;;;;;;;;;;;;;;;;;4993872;28;20005;-77
2022/03/19 07:24:38;;;;;;;;;;;;;;;;;;4992894;28;20018;-77
2022/03/19 07:27:06;;;;;;;;;;;;;;;;;;4994848;28;19995;-76
2022/03/19 07:29:39;;;;;;;;;;;;;;;;;;5012424;28;20017;-77
2022/03/19 07:32:06;;;;;;;;;;;;;;;;;;5028251;28;20120;-74
2022/03/19 07:34:39;;;;;;;;;;;;;;;;;;5031898;28;20493;-77
2022/03/19 07:37:09;;;;;;;;;;;;;;;;;;5027561;28;20359;-76
2022/03/19 07:39:39;;;;;;;;;;;;;;;;;;5032008;28;20002;-76
2022/03/19 07:42:09;;;;;;;;;;;;;;;;;;5014367;28;20024;-72
2022/03/19 07:44:41;;;;;;;;;;;;;;;;;;5031470;28;20445;-77
2022/03/19 07:47:09;;;;;;;;;;;;;;;;;;5031929;28;20001;-73
2022/03/19 07:49:44;;;;;;;;;;;;;;;;;;5032205;28;20433;-76
2022/03/19 07:52:13;;;;;;;;;;;;;;;;;;5017550;28;20088;-71
2022/03/19 07:54:41;;;;;;;;;;;;;;;;;;5035082;28;20026;-71
2022/03/19 07:57:11;;;;;;;;;;;;;;;;;;5036080;28;20005;-73
2022/03/19 07:59:52;;;;;;;;;;;;;;;;;;5017712;28;20067;-73
2022/03/19 08:02:22;;;;;;;;;;;;;;;;;;5018296;28;20126;-73
2022/03/19 08:04:50;;;;;;;;;;;;;;;;;;5035052;28;20001;-72
2022/03/19 08:07:19;;;;;;;;;;;;;;;;;;5035296;28;20002;-72
2022/03/19 08:09:47;;;;;;;;;;;;;;;;;;5017750;28;20423;-72
2022/03/19 08:12:17;;;;;;;;;;;;;;;;;;5000809;28;20388;-72
2022/03/19 08:14:47;;;;;;;;;;;;;;;;;;5017487;28;20028;-72
2022/03/19 08:17:15;;;;;;;;;;;;;;;;;;5034794;28;20437;-74
2022/03/19 08:19:49;;;;;;;;;;;;;;;;;;5018465;28;20072;-73
2022/03/19 08:22:29;;;;;;;;;;;;;;;;;;5035298;28;19994;-72
2022/03/19 08:25:01;;;;;;;;;;;;;;;;;;5014527;28;19998;-72
2022/03/19 08:27:31;;;;;;;;;;;;;;;;;;5035023;28;20096;-72
2022/03/19 08:29:59;;;;;;;;;;;;;;;;;;5035102;28;20298;-72
2022/03/19 08:32:28;;;;;;;;;;;;;;;;;;5000939;28;20022;-73
2022/03/19 08:34:57;;;;;;;;;;;;;;;;;;5034483;28;20428;-72
2022/03/19 08:37:38;;;;;;;;;;;;;;;;;;5034732;28;20001;-72
2022/03/19 08:40:18;;;;;;;;;;;;;;;;;;5034954;28;20005;-72
2022/03/19 08:42:46;;;;;;;;;;;;;;;;;;5034475;28;20036;-72
2022/03/19 08:45:22;;;;;;;;;;;;;;;;;;5035047;28;20087;-72
2022/03/19 08:47:54;;;;;;;;;;;;;;;;;;5034885;28;20001;-71
2022/03/19 08:50:24;;;;;;;;;;;;;;;;;;5034782;28;20088;-73
2022/03/19 08:52:51;;;;;;;;;;;;;;;;;;5032429;28;20026;-72
2022/03/19 08:55:22;;;;;;;;;;;;;;;;;;5007937;28;20017;-72
2022/03/19 08:57:49;;;;;;;;;;;;;;;;;;5033677;28;20029;-71
2022/03/19 09:00:17;;;;;;;;;;;;;;;;;;5034474;28;20055;-71
2022/03/19 09:02:45;;;;;;;;;;;;;;;;;;5033655;28;20097;-71
2022/03/19 09:05:13;;;;;;;;;;;;;;;;;;5017285;28;20009;-69
2022/03/19 09:07:40;;;;;;;;;;;;;;;;;;5033938;28;20048;-70
2022/03/19 09:10:17;;;;;;;;;;;;;;;;;;5034782;28;19998;-71
2022/03/19 09:12:44;;;;;;;;;;;;;;;;;;5034771;28;20024;-70
2022/03/19 09:15:14;;;;;;;;;;;;;;;;;;5017259;28;20021;-69
2022/03/19 09:17:41;;;;;;;;;;;;;;;;;;5000841;28;20006;-69
2022/03/19 09:20:10;;;;;;;;;;;;;;;;;;5034432;28;20005;-71
2022/03/19 09:22:37;;;;;;;;;;;;;;;;;;5034536;28;20017;-70
2022/03/19 09:25:08;;;;;;;;;;;;;;;;;;5034295;28;20001;-74
2022/03/19 09:27:39;;;;;;;;;;;;;;;;;;5034525;28;19994;-71
2022/03/19 09:30:07;;;;;;;;;;;;;;;;;;5034075;28;19993;-69
2022/03/19 09:32:41;;;;;;;;;;;;;;;;;;5033366;28;20008;-71
2022/03/19 09:35:09;;;;;;;;;;;;;;;;;;4999875;28;20140;-73
2022/03/19 09:37:39;;;;;;;;;;;;;;;;;;5034170;28;20128;-70
2022/03/19 09:40:07;;;;;;;;;;;;;;;;;;5034085;28;19997;-70
2022/03/19 09:42:35;;;;;;;;;;;;;;;;;;5033401;28;20096;-70
2022/03/19 09:45:06;;;;;;;;;;;;;;;;;;5033561;28;19994;-70
2022/03/19 09:47:34;;;;;;;;;;;;;;;;;;5011953;28;19998;-70
2022/03/19 09:50:01;;;;;;;;;;;;;;;;;;5013448;28;19999;-72
2022/03/19 09:52:37;;;;;;;;;;;;;;;;;;5021187;28;20397;-69
2022/03/19 09:55:05;;;;;;;;;;;;;;;;;;5013908;28;20109;-70
2022/03/19 09:57:32;;;;;;;;;;;;;;;;;;5013142;28;20467;-71
2022/03/19 10:00:01;;;;;;;;;;;;;;;;;;5013116;28;20014;-72
2022/03/19 10:02:30;;;;;;;;;;;;;;;;;;5009504;28;20005;-72
2022/03/19 10:08:35;;;;;;;;;;;;;;;;;;5032707;28;20112;-72
2022/03/19 10:10:40;;;;;;;;;;;12.40;99.90;;;;;;5029023;28;20085;-69
2022/03/19 10:13:10;;;;;;;;;;;12.50;99.90;;;;;;5032951;28;20123;-73
2022/03/19 10:15:41;;;;;;;;;;;12.50;99.90;;;;;;5033231;28;20060;-73
2022/03/19 10:18:10;;;;;;;;;;;12.40;99.90;;;;;;5015235;28;20454;-71
2022/03/19 10:20:39;;;;;;;;;;;12.60;99.90;;;;;;5032693;28;20032;-71
2022/03/19 10:23:07;;;;;;;;;;;12.40;99.90;;;;;;5033176;28;20041;-72
2022/03/19 10:25:34;;;;;;;;;;;12.50;99.90;;;;;;5033758;28;20034;-71
2022/03/19 10:28:09;;;;;;;;;;;12.30;99.90;;;;;;5033089;28;19994;-72
2022/03/19 10:30:37;;;;;;;;;;;12.40;99.90;;;;;;5032851;28;20063;-72
2022/03/19 10:33:07;;;;;;;;;;;12.40;99.90;;;;;;5032898;28;19994;-73
2022/03/19 10:35:42;;;;;;;;;;;12.10;99.90;;;;;;5015376;28;20556;-71
2022/03/19 10:38:17;;;;;;;;;;;11.80;99.90;;;;;;5032221;28;20424;-72
2022/03/19 10:40:47;;;;;;;;;;;11.80;99.90;;;;;;5032948;28;20043;-72
2022/03/19 10:43:17;;;;;;;;;;;11.80;99.90;;;;;;5032860;28;20016;-72
2022/03/19 10:45:49;;;;;;;;;;;12.00;99.90;;;;;;5033266;28;19998;-72
2022/03/19 10:48:18;;;;;;;;;;;12.10;99.90;;;;;;5032672;28;20048;-71
2022/03/19 10:50:45;;;;;;;;;;;11.90;99.90;;;;;;5033103;28;20005;-72
2022/03/19 10:53:14;;;;;;;;;;;11.80;99.90;;;;;;5032632;28;19994;-72
2022/03/19 10:55:42;;;;;;;;;;;11.90;99.90;;;;;;5014622;28;20053;-73
2022/03/19 10:58:10;;;;;;;;;;;11.90;99.90;;;;;;5032961;28;19994;-72
2022/03/19 11:00:58;;;;;;;;;;;11.50;99.90;;;;;;5033470;28;19994;-72
2022/03/19 11:03:27;;;;;;;;;;;11.30;99.90;;;;;;5033115;28;20001;-70
2022/03/19 11:06:06;;;;;;;;;;;11.60;99.90;;;;;;5015407;28;20424;-71
2022/03/19 11:08:38;;;;;;;;;;;11.30;99.90;;;;;;5032355;28;20001;-70
2022/03/19 11:11:11;;;;;;;;;;;11.10;99.90;;;;;;5015025;28;20476;-72
2022/03/19 11:13:43;;;;;;;;;;;11.20;99.90;;;;;;5032974;28;20489;-72
2022/03/19 11:16:12;;;;;;;;;;;11.20;99.90;;;;;;5032727;28;20016;-72
2022/03/19 11:18:42;;;;;;;;;;;11.30;99.90;;;;;;5032572;28;20049;-72
2022/03/19 11:21:10;;;;;;;;;;;11.40;99.90;;;;;;5032671;28;19994;-72
2022/03/19 11:23:45;;;;;;;;;;;11.40;99.90;;;;;;5015557;28;20372;-71
2022/03/19 11:26:19;;;;;;;;;;;11.40;99.90;;;;;;5034133;28;20076;-73
2022/03/19 11:28:46;;;;;;;;;;;10.90;99.90;;;;;;5035982;28;19994;-73
2022/03/19 11:31:16;;;;;;;;;;;10.90;99.90;;;;;;5036086;28;20018;-74
2022/03/19 11:33:45;;;;;;;;;;;11.00;99.90;;;;;;5036397;28;19994;-74
2022/03/19 11:36:14;;;;;;;;;;;11.10;99.90;;;;;;5036393;28;20025;-74
2022/03/19 11:38:51;;;;;;;;;;;11.20;99.90;;;;;;5036449;28;20005;-73
2022/03/19 11:41:18;;;;;;;;;;;11.40;99.90;;;;;;5032301;28;20001;-73
2022/03/19 11:43:48;;;;;;;;;;;11.50;99.90;;;;;;5056205;28;19994;-72
2022/03/19 11:46:17;;;;;;;;;;;11.50;99.90;;;;;;5056398;28;20016;-72
2022/03/19 11:48:47;;;;;;;;;;;11.50;99.90;;;;;;5056053;28;20017;-71
2022/03/19 11:51:20;;;;;;;;;;;11.50;99.90;;;;;;5038622;28;20000;-73
2022/03/19 11:53:51;;;;;;;;;;;11.40;99.90;;;;;;5055935;28;19997;-73
2022/03/19 11:56:25;;;;;;;;;;;11.40;99.90;;;;;;5055696;28;20045;-72
2022/03/19 11:58:54;;;;;;;;;;;11.60;99.90;;;;;;5056308;28;20032;-73
2022/03/19 12:01:40;;;;;;;;;;;11.60;99.90;;;;;;5044694;28;19998;-73
2022/03/19 12:04:14;;;;;;;;;;;11.80;99.90;;;;;;5015431;28;20009;-73
2022/03/19 12:06:49;;;;;;;;;;;11.70;99.90;;;;;;5015906;28;19999;-72
2022/03/19 12:09:17;;;;;;;;;;;11.60;99.90;;;;;;5026733;28;20364;-72
2022/03/19 12:12:02;;;;;;;;;;;11.70;99.90;;;;;;5035023;28;20093;-73
2022/03/19 12:14:35;;;;;;;;;;;11.70;99.90;;;;;;5033738;28;20013;-74
2022/03/19 12:17:20;;;;;;;;;;;11.90;99.90;;;;;;5017609;28;19998;-72
2022/03/19 12:19:53;;;;;;;;;;;11.80;99.90;;;;;;5035347;28;20089;-72
2022/03/19 12:22:30;;;;;;;;;;;11.80;99.90;;;;;;5035418;28;20389;-73
2022/03/19 12:25:04;;;;;;;;;;;11.80;99.90;;;;;;5017588;28;20001;-73
2022/03/19 12:27:31;;;;;;;;;;;11.90;99.90;;;;;;5035689;28;20108;-74
2022/03/19 12:30:03;;;;;;;;;;;11.80;99.90;;;;;;5034352;28;20073;-75
2022/03/19 12:32:55;;;;;;;;;;;11.30;99.90;;;;;;5034613;28;20009;-72
2022/03/19 12:35:23;;;;;;;;;;;11.20;99.90;;;;;;5035473;28;20131;-72
2022/03/19 12:37:54;;;;;;;;;;;11.00;99.90;;;;;;5027876;28;20018;-72
2022/03/19 12:40:25;;;;;;;;;;;12.30;99.90;;;;;;5021656;28;20430;-74
2022/03/19 12:42:53;;;;;;;;;;;12.30;99.90;;;;;;4998008;28;20033;-75
2022/03/19 12:45:34;;;;;;;;;;;11.90;99.90;;;;;;4997911;28;20002;-74
2022/03/19 12:48:10;;;;;;;;;;;11.60;99.90;;;;;;5015203;28;19994;-74
2022/03/19 12:50:37;;;;;;;;;;;11.80;99.90;;;;;;5015351;28;19994;-75
2022/03/19 12:53:07;;;;;;;;;;;11.60;99.90;;;;;;4997502;28;20002;-73
2022/03/19 12:55:35;;;;;;;;;;;11.60;99.90;;;;;;5014805;28;20010;-74
2022/03/19 12:58:04;;;;;;;;;;;11.60;99.90;;;;;;5015493;28;20410;-73
2022/03/19 13:00:32;;;;;;;;;;;11.60;99.90;;;;;;5015332;28;19994;-74
2022/03/19 13:02:59;;;;;;;;;;;11.50;99.90;;;;;;5015512;28;20113;-73
2022/03/19 13:05:26;;;;;;;;;;;11.40;99.90;;;;;;4997514;28;20001;-73
2022/03/19 13:08:02;;;;;;;;;;;11.40;99.90;;;;;;5014769;28;19994;-75
2022/03/19 13:10:38;;;;;;;;;;;11.40;99.90;;;;;;4997161;28;20088;-74
2022/03/19 13:13:08;;;;;;;;;;;11.60;99.90;;;;;;5014808;28;20025;-74
2022/03/19 13:15:36;;;;;;;;;;;11.80;99.90;;;;;;5005788;28;20006;-74
2022/03/19 13:18:10;;;;;;;;;;;11.80;99.90;;;;;;5015946;28;19993;-73
2022/03/19 13:20:38;;;;;;;;;;;11.60;99.90;;;;;;5007417;28;19998;-74
2022/03/19 13:23:05;;;;;;;;;;;11.50;99.90;;;;;;5031235;28;19998;-73
2022/03/19 13:25:33;;;;;;;;;;;11.60;99.90;;;;;;5034117;28;20000;-76
2022/03/19 13:28:07;;;;;;;;;;;11.70;99.90;;;;;;5013548;28;20048;-76
2022/03/19 13:30:36;;;;;;;;;;;11.50;99.90;;;;;;5012117;28;20036;-76
2022/03/19 13:33:04;;;;;;;;;;;11.20;99.90;;;;;;5011617;28;20002;-71
2022/03/19 13:35:39;;;;;;;;;;;11.10;99.90;;;;;;5007187;28;20053;-72
2022/03/19 13:38:07;;;;;;;;;;;11.00;99.90;;;;;;5033415;28;20040;-73
2022/03/19 13:40:45;;;;;;;;;;;11.20;99.90;;;;;;5013152;28;20358;-71
2022/03/19 13:43:14;;;;;;;;;;;11.30;99.90;;;;;;5033045;28;20097;-70
2022/03/19 13:45:42;;;;;;;;;;;11.40;99.90;;;;;;5033834;28;20385;-73
2022/03/19 13:48:09;;;;;;;;;;;11.30;99.90;;;;;;5033534;28;20093;-71
2022/03/19 13:50:41;;;;;;;;;;;11.40;99.90;;;;;;5016481;28;20000;-76
2022/03/19 13:53:09;;;;;;;;;;;11.20;99.90;;;;;;5033139;28;20004;-77
2022/03/19 13:55:41;;;;;;;;;;;11.20;99.90;;;;;;5013851;28;20010;-80
2022/03/19 13:58:17;;;;;;;;;;;11.30;99.90;;;;;;5015989;28;20349;-76
2022/03/19 14:00:47;;;;;;;;;;;11.10;99.90;;;;;;5030667;28;20396;-76
2022/03/19 14:03:16;;;;;;;;;;;11.10;99.90;;;;;;5032645;28;19994;-75
2022/03/19 14:05:48;;;;;;;;;;;11.00;99.90;;;;;;5013975;28;20001;-73
2022/03/19 14:08:19;;;;;;;;;;;11.10;99.90;;;;;;5031286;28;20017;-73
2022/03/19 14:10:48;;;;;;;;;;;11.10;99.90;;;;;;5030944;28;20008;-73
2022/03/19 14:13:38;;;;;;;;;;;11.00;99.90;;;;;;5014305;28;20304;-74
2022/03/19 14:16:09;;;;;;;;;;;10.70;99.90;;;;;;5032245;28;20013;-75
2022/03/19 14:18:37;;;;;;;;;;;10.20;99.90;;;;;;5012990;28;19998;-74
2022/03/19 14:21:08;;;;;;;;;;;10.30;99.90;;;;;;5014206;28;20416;-72
2022/03/19 14:23:43;;;;;;;;;;;10.30;99.90;;;;;;5032077;28;20002;-74
2022/03/19 14:26:13;;;;;;;;;;;10.30;99.90;;;;;;5032213;28;20464;-77
2022/03/19 14:28:45;;;;;;;;;;;10.50;99.90;;;;;;5014707;28;19998;-77
2022/03/19 14:31:19;;;;;;;;;;;10.50;99.90;;;;;;5031278;28;20049;-74
2022/03/19 14:33:47;;;;;;;;;;;10.60;99.90;;;;;;5032125;28;20004;-77
2022/03/19 14:36:15;;;;;;;;;;;10.50;99.90;;;;;;5028232;28;20436;-74
2022/03/19 14:38:47;;;;;;;;;;;10.40;99.90;;;;;;5029543;28;20326;-74
2022/03/19 14:41:15;;;;;;;;;;;10.40;99.90;;;;;;5014192;28;20029;-72
2022/03/19 14:43:47;;;;;;;;;;;10.40;99.90;;;;;;5013699;28;19998;-72
2022/03/19 14:46:26;;;;;;;;;;;10.30;99.90;;;;;;4998541;28;20092;-78
2022/03/19 14:48:54;;;;;;;;;;;10.20;99.90;;;;;;5014643;28;20073;-78
2022/03/19 14:51:24;;;;;;;;;;;10.30;99.90;;;;;;5014669;28;19994;-74
2022/03/19 14:53:52;;;;;;;;;;;10.20;99.90;;;;;;5032176;28;19994;-77
2022/03/19 14:56:25;;;;;;;;;;;10.10;99.90;;;;;;5012648;28;20085;-73
2022/03/19 14:58:59;;;;;;;;;;;10.00;99.90;;;;;;5028937;28;20449;-73
2022/03/19 15:01:29;;;;;;;;;;;10.00;99.90;;;;;;5031062;28;20010;-74
2022/03/19 15:03:56;;;;;;;;;;;9.90;99.90;;;;;;5017515;28;20030;-77
2022/03/19 15:06:26;;;;;;;;;;;10.30;99.90;;;;;;5001332;28;20000;-76
2022/03/19 15:08:57;;;;;;;;;;;10.30;99.90;;;;;;5034873;28;19998;-73
2022/03/19 15:11:24;;;;;;;;;;;9.80;99.90;;;;;;5034226;28;20033;-75
2022/03/19 15:13:51;;;;;;;;;;;10.00;99.90;;;;;;5034183;28;20022;-76
2022/03/19 15:16:22;;;;;;;;;;;10.00;99.90;;;;;;5034586;28;20140;-76
2022/03/19 15:18:52;;;;;;;;;;;10.10;99.90;;;;;;5033338;28;20096;-75
2022/03/19 15:21:19;;;;;;;;;;;10.10;99.90;;;;;;5032696;28;20342;-77
2022/03/19 15:23:46;;;;;;;;;;;10.20;99.90;;;;;;5017935;28;20369;-76
2022/03/19 15:26:14;;;;;;;;;;;10.30;99.90;;;;;;5035799;28;20012;-77
2022/03/19 15:28:44;;;;;;;;;;;10.40;99.90;;;;;;5036384;28;20449;-77
2022/03/19 15:31:11;;;;;;;;;;;10.50;99.90;;;;;;5016569;28;20029;-75
2022/03/19 15:33:40;;;;;;;;;;;10.60;99.90;;;;;;5017868;28;20393;-77
2022/03/19 15:36:12;;;;;;;;;;;10.50;99.90;;;;;;5032937;28;20017;-76
2022/03/19 15:38:43;;;;;;;;;;;10.10;99.90;;;;;;5017148;28;20553;-77
2022/03/19 15:41:16;;;;;;;;;;;9.90;99.90;;;;;;5034570;28;19994;-76
2022/03/19 15:43:44;;;;;;;;;;;9.90;99.90;;;;;;5018730;28;19996;-76
2022/03/19 15:46:12;;;;;;;;;;;10.10;99.90;;;;;;5017546;28;20009;-72
2022/03/19 15:48:40;;;;;;;;;;;10.00;99.90;;;;;;5017839;28;20002;-76
2022/03/19 15:51:06;;;;;;;;;;;10.00;99.90;;;;;;5035476;28;20005;-76
2022/03/19 15:53:35;;;;;;;;;;;10.00;99.90;;;;;;5035230;28;20093;-76
2022/03/19 15:56:03;;;;;;;;;;;10.10;99.90;;;;;;5034559;28;20065;-76
2022/03/19 15:58:31;;;;;;;;;;;10.10;99.90;;;;;;5034772;28;20317;-73
2022/03/19 16:00:57;;;;;;;;;;;10.10;99.90;;;;;;5017232;28;19994;-73
2022/03/19 16:03:27;;;;;;;;;;;10.10;99.90;;;;;;5035085;28;20488;-73
2022/03/19 16:05:54;;;;;;;;;;;9.90;99.90;;;;;;5035126;28;20092;-73
2022/03/19 16:08:21;;;;;;;;;;;9.90;99.90;;;;;;5034990;28;20004;-76
2022/03/19 16:10:48;;;;;;;;;;;9.90;99.90;;;;;;5035384;28;20002;-76